sensor_id;sensor_type;location;lat;lon;timestamp;P1;durP1;ratioP1;P2;durP2;ratioP2
37425;SDS011;23285;50.180;7.036;2023-03-14T00:02:17;8.57;;;2.63;;
37425;SDS011;23285;50.180;7.036;2023-03-14T00:05:04;6.40;;;2.43;;
37425;SDS011;23285;50.180;7.036;2023-03-14T00:07:53;24.60;;;12.63;;
37425;SDS011;23285;50.180;7.036;2023-03-14T00:10:39;11.87;;;2.80;;
37425;SDS011;23285;50.180;7.036;2023-03-14T00:13:26;8.37;;;2.67;;
37425;SDS011;23285;50.180;7.036;2023-03-14T00:16:12;10.30;;;3.23;;
37425;SDS011;23285;50.180;7.036;2023-03-14T00:18:59;11.37;;;3.63;;
37425;SDS011;23285;50.180;7.036;2023-03-14T00:21:45;8.50;;;2.83;;
37425;SDS011;23285;50.180;7.036;2023-03-14T00:24:33;9.13;;;3.50;;
37425;SDS011;23285;50.180;7.036;2023-03-14T00:27:19;17.97;;;10.60;;
37425;SDS011;23285;50.180;7.036;2023-03-14T00:30:06;9.80;;;2.83;;
37425;SDS011;23285;50.180;7.036;2023-03-14T00:32:53;9.53;;;2.80;;
37425;SDS011;23285;50.180;7.036;2023-03-14T00:35:40;13.43;;;3.00;;
37425;SDS011;23285;50.180;7.036;2023-03-14T00:38:27;8.77;;;3.27;;
37425;SDS011;23285;50.180;7.036;2023-03-14T00:41:15;12.90;;;3.57;;
37425;SDS011;23285;50.180;7.036;2023-03-14T00:44:03;10.80;;;2.70;;
37425;SDS011;23285;50.180;7.036;2023-03-14T00:46:49;10.67;;;3.47;;
37425;SDS011;23285;50.180;7.036;2023-03-14T00:49:36;11.00;;;3.87;;
37425;SDS011;23285;50.180;7.036;2023-03-14T00:52:22;15.40;;;3.43;;
37425;SDS011;23285;50.180;7.036;2023-03-14T00:55:09;11.70;;;3.40;;
37425;SDS011;23285;50.180;7.036;2023-03-14T00:57:57;15.60;;;3.77;;
37425;SDS011;23285;50.180;7.036;2023-03-14T01:00:43;10.77;;;3.10;;
37425;SDS011;23285;50.180;7.036;2023-03-14T01:03:30;20.07;;;5.00;;
37425;SDS011;23285;50.180;7.036;2023-03-14T01:06:17;12.30;;;3.50;;
37425;SDS011;23285;50.180;7.036;2023-03-14T01:09:05;16.37;;;4.90;;
37425;SDS011;23285;50.180;7.036;2023-03-14T01:11:51;16.67;;;3.63;;
37425;SDS011;23285;50.180;7.036;2023-03-14T01:14:39;16.10;;;3.57;;
37425;SDS011;23285;50.180;7.036;2023-03-14T01:17:25;10.97;;;2.90;;
37425;SDS011;23285;50.180;7.036;2023-03-14T01:20:13;14.33;;;3.07;;
37425;SDS011;23285;50.180;7.036;2023-03-14T01:22:59;9.33;;;2.53;;
37425;SDS011;23285;50.180;7.036;2023-03-14T01:25:46;11.07;;;2.97;;
37425;SDS011;23285;50.180;7.036;2023-03-14T01:28:33;13.37;;;3.90;;
37425;SDS011;23285;50.180;7.036;2023-03-14T01:31:21;12.40;;;3.10;;
37425;SDS011;23285;50.180;7.036;2023-03-14T01:34:09;15.07;;;3.27;;
37425;SDS011;23285;50.180;7.036;2023-03-14T01:36:55;11.30;;;3.50;;
37425;SDS011;23285;50.180;7.036;2023-03-14T01:39:42;13.37;;;3.97;;
37425;SDS011;23285;50.180;7.036;2023-03-14T01:42:29;11.53;;;3.00;;
37425;SDS011;23285;50.180;7.036;2023-03-14T01:49:05;18.00;;;7.53;;
37425;SDS011;23285;50.180;7.036;2023-03-14T01:51:58;10.07;;;3.17;;
37425;SDS011;23285;50.180;7.036;2023-03-14T01:54:49;12.87;;;3.20;;
37425;SDS011;23285;50.180;7.036;2023-03-14T01:57:39;10.40;;;3.00;;
37425;SDS011;23285;50.180;7.036;2023-03-14T02:00:30;12.73;;;3.67;;
37425;SDS011;23285;50.180;7.036;2023-03-14T02:03:17;11.40;;;3.40;;
37425;SDS011;23285;50.180;7.036;2023-03-14T02:06:07;10.63;;;2.73;;
37425;SDS011;23285;50.180;7.036;2023-03-14T02:08:57;14.53;;;2.93;;
37425;SDS011;23285;50.180;7.036;2023-03-14T02:11:47;11.03;;;2.77;;
37425;SDS011;23285;50.180;7.036;2023-03-14T02:15:02;12.90;;;3.87;;
37425;SDS011;23285;50.180;7.036;2023-03-14T02:18:06;10.20;;;3.23;;
37425;SDS011;23285;50.180;7.036;2023-03-14T02:21:04;12.03;;;2.53;;
37425;SDS011;23285;50.180;7.036;2023-03-14T02:23:58;12.80;;;2.90;;
37425;SDS011;23285;50.180;7.036;2023-03-14T02:30:08;11.57;;;3.43;;
37425;SDS011;23285;50.180;7.036;2023-03-14T02:33:00;12.20;;;3.37;;
37425;SDS011;23285;50.180;7.036;2023-03-14T02:35:50;12.30;;;3.03;;
37425;SDS011;23285;50.180;7.036;2023-03-14T02:38:39;16.93;;;3.40;;
37425;SDS011;23285;50.180;7.036;2023-03-14T02:41:28;9.57;;;2.67;;
37425;SDS011;23285;50.180;7.036;2023-03-14T02:44:21;21.03;;;3.70;;
37425;SDS011;23285;50.180;7.036;2023-03-14T02:47:08;16.07;;;3.53;;
37425;SDS011;23285;50.180;7.036;2023-03-14T02:49:57;12.27;;;3.27;;
37425;SDS011;23285;50.180;7.036;2023-03-14T02:52:47;15.13;;;3.10;;
37425;SDS011;23285;50.180;7.036;2023-03-14T02:55:34;12.03;;;2.70;;
37425;SDS011;23285;50.180;7.036;2023-03-14T02:58:28;12.57;;;3.03;;
37425;SDS011;23285;50.180;7.036;2023-03-14T03:01:24;12.57;;;3.27;;
37425;SDS011;23285;50.180;7.036;2023-03-14T03:04:11;13.37;;;2.70;;
37425;SDS011;23285;50.180;7.036;2023-03-14T03:06:57;12.70;;;2.60;;
37425;SDS011;23285;50.180;7.036;2023-03-14T03:09:43;10.80;;;3.00;;
37425;SDS011;23285;50.180;7.036;2023-03-14T03:12:30;9.33;;;2.87;;
37425;SDS011;23285;50.180;7.036;2023-03-14T03:15:17;10.10;;;2.57;;
37425;SDS011;23285;50.180;7.036;2023-03-14T03:18:04;7.73;;;2.13;;
37425;SDS011;23285;50.180;7.036;2023-03-14T03:20:51;9.70;;;2.60;;
37425;SDS011;23285;50.180;7.036;2023-03-14T03:23:38;10.17;;;2.30;;
37425;SDS011;23285;50.180;7.036;2023-03-14T03:26:24;5.40;;;1.93;;
37425;SDS011;23285;50.180;7.036;2023-03-14T03:29:10;7.03;;;2.43;;
37425;SDS011;23285;50.180;7.036;2023-03-14T03:31:57;6.27;;;2.43;;
37425;SDS011;23285;50.180;7.036;2023-03-14T03:34:45;4.70;;;1.70;;
37425;SDS011;23285;50.180;7.036;2023-03-14T03:37:32;9.40;;;1.87;;
37425;SDS011;23285;50.180;7.036;2023-03-14T03:40:18;7.87;;;2.00;;
37425;SDS011;23285;50.180;7.036;2023-03-14T03:43:05;5.83;;;1.77;;
37425;SDS011;23285;50.180;7.036;2023-03-14T03:45:54;7.20;;;2.07;;
37425;SDS011;23285;50.180;7.036;2023-03-14T03:48:41;7.67;;;2.23;;
37425;SDS011;23285;50.180;7.036;2023-03-14T03:51:29;5.13;;;1.67;;
37425;SDS011;23285;50.180;7.036;2023-03-14T03:54:15;7.13;;;1.60;;
37425;SDS011;23285;50.180;7.036;2023-03-14T03:57:02;6.17;;;2.20;;
37425;SDS011;23285;50.180;7.036;2023-03-14T03:59:49;7.27;;;2.00;;
37425;SDS011;23285;50.180;7.036;2023-03-14T04:02:35;5.07;;;1.67;;
37425;SDS011;23285;50.180;7.036;2023-03-14T04:05:22;7.20;;;1.70;;
37425;SDS011;23285;50.180;7.036;2023-03-14T04:08:16;8.53;;;2.10;;
37425;SDS011;23285;50.180;7.036;2023-03-14T04:11:03;2.93;;;1.53;;
37425;SDS011;23285;50.180;7.036;2023-03-14T04:14:11;3.73;;;1.60;;
37425;SDS011;23285;50.180;7.036;2023-03-14T04:16:57;5.80;;;1.60;;
37425;SDS011;23285;50.180;7.036;2023-03-14T04:19:43;4.30;;;1.40;;
37425;SDS011;23285;50.180;7.036;2023-03-14T04:22:31;2.97;;;1.30;;
37425;SDS011;23285;50.180;7.036;2023-03-14T04:25:19;5.80;;;1.60;;
37425;SDS011;23285;50.180;7.036;2023-03-14T04:28:10;3.60;;;1.37;;
37425;SDS011;23285;50.180;7.036;2023-03-14T04:30:57;4.70;;;1.50;;
37425;SDS011;23285;50.180;7.036;2023-03-14T04:33:44;4.80;;;1.70;;
37425;SDS011;23285;50.180;7.036;2023-03-14T04:36:34;5.73;;;1.50;;
37425;SDS011;23285;50.180;7.036;2023-03-14T04:39:23;3.00;;;1.60;;
37425;SDS011;23285;50.180;7.036;2023-03-14T04:42:19;3.03;;;1.20;;
37425;SDS011;23285;50.180;7.036;2023-03-14T04:45:06;6.07;;;1.00;;
37425;SDS011;23285;50.180;7.036;2023-03-14T04:47:55;9.57;;;4.93;;
37425;SDS011;23285;50.180;7.036;2023-03-14T04:50:41;2.87;;;1.20;;
37425;SDS011;23285;50.180;7.036;2023-03-14T04:53:28;3.47;;;1.00;;
37425;SDS011;23285;50.180;7.036;2023-03-14T04:56:16;2.10;;;1.23;;
37425;SDS011;23285;50.180;7.036;2023-03-14T04:59:04;1.93;;;0.97;;
37425;SDS011;23285;50.180;7.036;2023-03-14T05:01:53;1.27;;;0.83;;
37425;SDS011;23285;50.180;7.036;2023-03-14T05:04:52;1.63;;;0.83;;
37425;SDS011;23285;50.180;7.036;2023-03-14T05:07:52;1.57;;;1.00;;
37425;SDS011;23285;50.180;7.036;2023-03-14T05:10:55;2.33;;;0.90;;
37425;SDS011;23285;50.180;7.036;2023-03-14T05:14:12;3.37;;;1.00;;
37425;SDS011;23285;50.180;7.036;2023-03-14T05:17:13;1.63;;;0.77;;
37425;SDS011;23285;50.180;7.036;2023-03-14T05:20:32;3.23;;;1.57;;
37425;SDS011;23285;50.180;7.036;2023-03-14T05:23:38;1.77;;;0.83;;
37425;SDS011;23285;50.180;7.036;2023-03-14T05:26:41;2.73;;;0.90;;
37425;SDS011;23285;50.180;7.036;2023-03-14T05:29:48;3.17;;;0.90;;
37425;SDS011;23285;50.180;7.036;2023-03-14T05:32:54;2.03;;;0.93;;
37425;SDS011;23285;50.180;7.036;2023-03-14T05:35:59;2.37;;;1.50;;
37425;SDS011;23285;50.180;7.036;2023-03-14T05:38:58;2.00;;;0.97;;
37425;SDS011;23285;50.180;7.036;2023-03-14T05:41:59;2.80;;;0.83;;
37425;SDS011;23285;50.180;7.036;2023-03-14T05:45:07;3.50;;;1.13;;
37425;SDS011;23285;50.180;7.036;2023-03-14T05:48:14;5.17;;;1.27;;
37425;SDS011;23285;50.180;7.036;2023-03-14T05:51:36;11.00;;;7.17;;
37425;SDS011;23285;50.180;7.036;2023-03-14T05:54:41;5.30;;;1.27;;
37425;SDS011;23285;50.180;7.036;2023-03-14T05:57:48;3.93;;;1.20;;
37425;SDS011;23285;50.180;7.036;2023-03-14T06:01:08;3.33;;;1.20;;
37425;SDS011;23285;50.180;7.036;2023-03-14T06:04:20;3.37;;;1.30;;
37425;SDS011;23285;50.180;7.036;2023-03-14T06:07:12;4.03;;;1.40;;
37425;SDS011;23285;50.180;7.036;2023-03-14T06:09:59;31.90;;;18.53;;
37425;SDS011;23285;50.180;7.036;2023-03-14T06:12:46;3.70;;;1.40;;
37425;SDS011;23285;50.180;7.036;2023-03-14T06:15:33;5.73;;;3.07;;
37425;SDS011;23285;50.180;7.036;2023-03-14T06:18:23;9.13;;;4.93;;
37425;SDS011;23285;50.180;7.036;2023-03-14T06:21:10;6.97;;;3.37;;
37425;SDS011;23285;50.180;7.036;2023-03-14T06:23:57;7.57;;;2.93;;
37425;SDS011;23285;50.180;7.036;2023-03-14T06:26:46;30.60;;;19.73;;
37425;SDS011;23285;50.180;7.036;2023-03-14T06:29:33;6.07;;;3.53;;
37425;SDS011;23285;50.180;7.036;2023-03-14T06:32:21;5.30;;;2.97;;
37425;SDS011;23285;50.180;7.036;2023-03-14T06:35:12;11.27;;;6.03;;
37425;SDS011;23285;50.180;7.036;2023-03-14T06:38:01;3.30;;;1.53;;
37425;SDS011;23285;50.180;7.036;2023-03-14T06:40:47;2.50;;;1.30;;
37425;SDS011;23285;50.180;7.036;2023-03-14T06:43:45;1.47;;;1.17;;
37425;SDS011;23285;50.180;7.036;2023-03-14T06:46:32;3.67;;;1.30;;
37425;SDS011;23285;50.180;7.036;2023-03-14T06:49:19;5.00;;;1.63;;
37425;SDS011;23285;50.180;7.036;2023-03-14T06:52:11;3.63;;;1.00;;
37425;SDS011;23285;50.180;7.036;2023-03-14T06:54:58;1.93;;;0.90;;
37425;SDS011;23285;50.180;7.036;2023-03-14T06:57:47;2.30;;;1.30;;
37425;SDS011;23285;50.180;7.036;2023-03-14T07:00:33;2.33;;;1.00;;
37425;SDS011;23285;50.180;7.036;2023-03-14T07:03:21;5.60;;;1.13;;
37425;SDS011;23285;50.180;7.036;2023-03-14T07:06:10;4.20;;;1.40;;
37425;SDS011;23285;50.180;7.036;2023-03-14T07:08:58;3.93;;;1.17;;
37425;SDS011;23285;50.180;7.036;2023-03-14T07:11:45;1.20;;;0.80;;
37425;SDS011;23285;50.180;7.036;2023-03-14T07:14:32;1.53;;;0.87;;
37425;SDS011;23285;50.180;7.036;2023-03-14T07:17:18;10.30;;;7.43;;
37425;SDS011;23285;50.180;7.036;2023-03-14T07:20:05;2.30;;;0.80;;
37425;SDS011;23285;50.180;7.036;2023-03-14T07:22:53;2.33;;;0.90;;
37425;SDS011;23285;50.180;7.036;2023-03-14T07:25:54;1.17;;;0.70;;
37425;SDS011;23285;50.180;7.036;2023-03-14T07:28:43;2.40;;;0.90;;
37425;SDS011;23285;50.180;7.036;2023-03-14T07:31:34;1.40;;;0.70;;
37425;SDS011;23285;50.180;7.036;2023-03-14T07:34:21;2.07;;;0.90;;
37425;SDS011;23285;50.180;7.036;2023-03-14T07:37:08;2.83;;;1.00;;
37425;SDS011;23285;50.180;7.036;2023-03-14T07:39:55;1.60;;;0.70;;
37425;SDS011;23285;50.180;7.036;2023-03-14T07:42:46;2.73;;;0.90;;
37425;SDS011;23285;50.180;7.036;2023-03-14T07:45:35;1.03;;;0.87;;
37425;SDS011;23285;50.180;7.036;2023-03-14T07:48:21;1.70;;;0.80;;
37425;SDS011;23285;50.180;7.036;2023-03-14T07:51:09;1.13;;;0.80;;
37425;SDS011;23285;50.180;7.036;2023-03-14T07:53:55;2.40;;;0.90;;
37425;SDS011;23285;50.180;7.036;2023-03-14T07:56:41;1.07;;;0.70;;
37425;SDS011;23285;50.180;7.036;2023-03-14T07:59:29;1.33;;;0.80;;
37425;SDS011;23285;50.180;7.036;2023-03-14T08:02:15;1.97;;;1.10;;
37425;SDS011;23285;50.180;7.036;2023-03-14T08:05:04;1.50;;;0.80;;
37425;SDS011;23285;50.180;7.036;2023-03-14T08:07:51;0.80;;;0.80;;
37425;SDS011;23285;50.180;7.036;2023-03-14T08:10:38;1.70;;;1.43;;
37425;SDS011;23285;50.180;7.036;2023-03-14T08:13:24;0.73;;;0.73;;
37425;SDS011;23285;50.180;7.036;2023-03-14T08:16:12;1.77;;;0.90;;
37425;SDS011;23285;50.180;7.036;2023-03-14T08:18:58;1.73;;;0.90;;
37425;SDS011;23285;50.180;7.036;2023-03-14T08:21:45;1.03;;;0.80;;
37425;SDS011;23285;50.180;7.036;2023-03-14T08:24:31;1.60;;;0.80;;
37425;SDS011;23285;50.180;7.036;2023-03-14T08:27:18;1.40;;;1.00;;
37425;SDS011;23285;50.180;7.036;2023-03-14T08:30:05;2.20;;;0.80;;
37425;SDS011;23285;50.180;7.036;2023-03-14T08:32:54;1.20;;;0.80;;
37425;SDS011;23285;50.180;7.036;2023-03-14T08:35:42;1.23;;;1.10;;
37425;SDS011;23285;50.180;7.036;2023-03-14T08:38:28;0.63;;;0.63;;
37425;SDS011;23285;50.180;7.036;2023-03-14T08:41:15;0.87;;;0.80;;
37425;SDS011;23285;50.180;7.036;2023-03-14T08:44:01;1.13;;;0.80;;
37425;SDS011;23285;50.180;7.036;2023-03-14T08:46:48;2.13;;;0.70;;
37425;SDS011;23285;50.180;7.036;2023-03-14T08:49:35;1.00;;;0.70;;
37425;SDS011;23285;50.180;7.036;2023-03-14T08:52:22;0.83;;;0.80;;
37425;SDS011;23285;50.180;7.036;2023-03-14T08:55:08;1.83;;;1.10;;
37425;SDS011;23285;50.180;7.036;2023-03-14T08:57:56;1.40;;;0.87;;
37425;SDS011;23285;50.180;7.036;2023-03-14T09:00:43;1.70;;;0.80;;
37425;SDS011;23285;50.180;7.036;2023-03-14T09:03:29;1.10;;;0.90;;
37425;SDS011;23285;50.180;7.036;2023-03-14T09:06:19;0.80;;;0.80;;
37425;SDS011;23285;50.180;7.036;2023-03-14T09:09:06;0.60;;;0.60;;
37425;SDS011;23285;50.180;7.036;2023-03-14T09:11:52;0.63;;;0.63;;
37425;SDS011;23285;50.180;7.036;2023-03-14T09:14:39;0.70;;;0.70;;
37425;SDS011;23285;50.180;7.036;2023-03-14T09:17:25;0.60;;;0.60;;
37425;SDS011;23285;50.180;7.036;2023-03-14T09:20:12;1.07;;;0.70;;
37425;SDS011;23285;50.180;7.036;2023-03-14T09:23:00;0.90;;;0.90;;
37425;SDS011;23285;50.180;7.036;2023-03-14T09:25:47;0.70;;;0.70;;
37425;SDS011;23285;50.180;7.036;2023-03-14T09:28:33;0.73;;;0.70;;
37425;SDS011;23285;50.180;7.036;2023-03-14T09:31:19;1.53;;;0.80;;
37425;SDS011;23285;50.180;7.036;2023-03-14T09:34:05;1.27;;;0.87;;
37425;SDS011;23285;50.180;7.036;2023-03-14T09:36:52;0.80;;;0.73;;
37425;SDS011;23285;50.180;7.036;2023-03-14T09:39:40;0.70;;;0.70;;
37425;SDS011;23285;50.180;7.036;2023-03-14T09:42:26;0.50;;;0.50;;
37425;SDS011;23285;50.180;7.036;2023-03-14T09:45:14;0.77;;;0.73;;
37425;SDS011;23285;50.180;7.036;2023-03-14T09:48:04;0.90;;;0.80;;
37425;SDS011;23285;50.180;7.036;2023-03-14T09:50:51;0.83;;;0.83;;
37425;SDS011;23285;50.180;7.036;2023-03-14T09:53:39;1.27;;;1.17;;
37425;SDS011;23285;50.180;7.036;2023-03-14T09:56:29;0.50;;;0.50;;
37425;SDS011;23285;50.180;7.036;2023-03-14T09:59:18;0.77;;;0.70;;
37425;SDS011;23285;50.180;7.036;2023-03-14T10:02:11;0.47;;;0.47;;
37425;SDS011;23285;50.180;7.036;2023-03-14T10:05:01;0.40;;;0.40;;
37425;SDS011;23285;50.180;7.036;2023-03-14T10:07:51;0.33;;;0.33;;
37425;SDS011;23285;50.180;7.036;2023-03-14T10:10:38;0.50;;;0.50;;
37425;SDS011;23285;50.180;7.036;2023-03-14T10:13:26;0.43;;;0.43;;
37425;SDS011;23285;50.180;7.036;2023-03-14T10:16:13;0.30;;;0.30;;
37425;SDS011;23285;50.180;7.036;2023-03-14T10:19:01;0.30;;;0.30;;
37425;SDS011;23285;50.180;7.036;2023-03-14T10:21:50;0.20;;;0.20;;
37425;SDS011;23285;50.180;7.036;2023-03-14T10:24:38;0.30;;;0.30;;
37425;SDS011;23285;50.180;7.036;2023-03-14T10:27:32;0.30;;;0.30;;
37425;SDS011;23285;50.180;7.036;2023-03-14T10:30:28;0.30;;;0.30;;
37425;SDS011;23285;50.180;7.036;2023-03-14T10:33:19;0.37;;;0.37;;
37425;SDS011;23285;50.180;7.036;2023-03-14T10:36:14;0.30;;;0.30;;
37425;SDS011;23285;50.180;7.036;2023-03-14T10:39:18;0.33;;;0.33;;
37425;SDS011;23285;50.180;7.036;2023-03-14T10:42:12;0.33;;;0.33;;
37425;SDS011;23285;50.180;7.036;2023-03-14T10:45:05;1.13;;;0.40;;
37425;SDS011;23285;50.180;7.036;2023-03-14T10:47:54;0.40;;;0.40;;
37425;SDS011;23285;50.180;7.036;2023-03-14T10:50:47;0.93;;;0.50;;
37425;SDS011;23285;50.180;7.036;2023-03-14T10:53:38;0.40;;;0.40;;
37425;SDS011;23285;50.180;7.036;2023-03-14T10:56:26;0.30;;;0.30;;
37425;SDS011;23285;50.180;7.036;2023-03-14T10:59:14;0.50;;;0.50;;
37425;SDS011;23285;50.180;7.036;2023-03-14T11:02:02;0.60;;;0.60;;
37425;SDS011;23285;50.180;7.036;2023-03-14T11:04:56;0.47;;;0.47;;
37425;SDS011;23285;50.180;7.036;2023-03-14T11:07:50;0.50;;;0.50;;
37425;SDS011;23285;50.180;7.036;2023-03-14T11:10:39;2.17;;;1.43;;
37425;SDS011;23285;50.180;7.036;2023-03-14T11:13:28;0.40;;;0.40;;
37425;SDS011;23285;50.180;7.036;2023-03-14T11:16:20;0.63;;;0.63;;
37425;SDS011;23285;50.180;7.036;2023-03-14T11:19:17;0.50;;;0.50;;
37425;SDS011;23285;50.180;7.036;2023-03-14T11:22:19;0.60;;;0.60;;
37425;SDS011;23285;50.180;7.036;2023-03-14T11:25:13;0.63;;;0.63;;
37425;SDS011;23285;50.180;7.036;2023-03-14T11:28:08;1.27;;;0.70;;
37425;SDS011;23285;50.180;7.036;2023-03-14T11:31:04;0.60;;;0.60;;
37425;SDS011;23285;50.180;7.036;2023-03-14T11:33:54;1.27;;;0.70;;
37425;SDS011;23285;50.180;7.036;2023-03-14T11:36:44;0.60;;;0.60;;
37425;SDS011;23285;50.180;7.036;2023-03-14T11:39:37;0.43;;;0.43;;
37425;SDS011;23285;50.180;7.036;2023-03-14T11:42:25;0.50;;;0.50;;
37425;SDS011;23285;50.180;7.036;2023-03-14T11:45:16;0.40;;;0.40;;
37425;SDS011;23285;50.180;7.036;2023-03-14T11:48:07;0.40;;;0.40;;
37425;SDS011;23285;50.180;7.036;2023-03-14T11:51:04;0.60;;;0.60;;
37425;SDS011;23285;50.180;7.036;2023-03-14T11:53:57;0.40;;;0.40;;
37425;SDS011;23285;50.180;7.036;2023-03-14T11:56:50;0.60;;;0.60;;
37425;SDS011;23285;50.180;7.036;2023-03-14T11:59:41;0.50;;;0.50;;
37425;SDS011;23285;50.180;7.036;2023-03-14T12:02:33;1.37;;;0.70;;
37425;SDS011;23285;50.180;7.036;2023-03-14T12:05:46;0.60;;;0.60;;
37425;SDS011;23285;50.180;7.036;2023-03-14T12:11:43;0.70;;;0.70;;
37425;SDS011;23285;50.180;7.036;2023-03-14T12:14:32;0.80;;;0.80;;
37425;SDS011;23285;50.180;7.036;2023-03-14T12:17:20;1.53;;;1.33;;
37425;SDS011;23285;50.180;7.036;2023-03-14T12:20:15;2.00;;;1.50;;
37425;SDS011;23285;50.180;7.036;2023-03-14T12:23:03;2.47;;;1.70;;
37425;SDS011;23285;50.180;7.036;2023-03-14T12:26:05;2.30;;;2.10;;
37425;SDS011;23285;50.180;7.036;2023-03-14T12:29:09;2.10;;;1.90;;
37425;SDS011;23285;50.180;7.036;2023-03-14T12:32:08;2.60;;;2.40;;
37425;SDS011;23285;50.180;7.036;2023-03-14T12:34:55;3.87;;;2.40;;
37425;SDS011;23285;50.180;7.036;2023-03-14T12:37:43;4.10;;;2.97;;
37425;SDS011;23285;50.180;7.036;2023-03-14T12:40:34;3.33;;;3.03;;
37425;SDS011;23285;50.180;7.036;2023-03-14T12:43:25;4.97;;;2.80;;
37425;SDS011;23285;50.180;7.036;2023-03-14T12:46:23;3.30;;;3.00;;
37425;SDS011;23285;50.180;7.036;2023-03-14T12:49:12;3.93;;;3.40;;
37425;SDS011;23285;50.180;7.036;2023-03-14T12:51:59;4.23;;;2.90;;
37425;SDS011;23285;50.180;7.036;2023-03-14T12:54:47;3.10;;;2.80;;
37425;SDS011;23285;50.180;7.036;2023-03-14T12:57:36;3.40;;;3.10;;
37425;SDS011;23285;50.180;7.036;2023-03-14T13:00:29;3.40;;;3.10;;
37425;SDS011;23285;50.180;7.036;2023-03-14T13:03:18;3.73;;;3.30;;
37425;SDS011;23285;50.180;7.036;2023-03-14T13:06:11;4.93;;;2.80;;
37425;SDS011;23285;50.180;7.036;2023-03-14T13:08:57;3.00;;;2.40;;
37425;SDS011;23285;50.180;7.036;2023-03-14T13:12:09;3.30;;;3.00;;
37425;SDS011;23285;50.180;7.036;2023-03-14T13:14:58;3.40;;;2.97;;
37425;SDS011;23285;50.180;7.036;2023-03-14T13:17:47;3.53;;;3.07;;
37425;SDS011;23285;50.180;7.036;2023-03-14T13:20:35;5.27;;;3.30;;
37425;SDS011;23285;50.180;7.036;2023-03-14T13:23:25;4.30;;;3.40;;
37425;SDS011;23285;50.180;7.036;2023-03-14T13:26:13;6.27;;;3.17;;
37425;SDS011;23285;50.180;7.036;2023-03-14T13:29:08;4.57;;;3.33;;
37425;SDS011;23285;50.180;7.036;2023-03-14T13:31:55;5.07;;;3.00;;
37425;SDS011;23285;50.180;7.036;2023-03-14T13:34:43;3.60;;;3.30;;
37425;SDS011;23285;50.180;7.036;2023-03-14T13:37:29;5.13;;;3.67;;
37425;SDS011;23285;50.180;7.036;2023-03-14T13:40:23;3.70;;;3.40;;
37425;SDS011;23285;50.180;7.036;2023-03-14T13:43:13;4.60;;;2.97;;
37425;SDS011;23285;50.180;7.036;2023-03-14T13:46:03;5.83;;;2.90;;
37425;SDS011;23285;50.180;7.036;2023-03-14T13:48:52;6.03;;;3.20;;
37425;SDS011;23285;50.180;7.036;2023-03-14T13:51:39;5.00;;;3.33;;
37425;SDS011;23285;50.180;7.036;2023-03-14T13:54:26;5.03;;;2.80;;
37425;SDS011;23285;50.180;7.036;2023-03-14T13:57:14;5.43;;;3.00;;
37425;SDS011;23285;50.180;7.036;2023-03-14T14:00:01;4.50;;;2.60;;
37425;SDS011;23285;50.180;7.036;2023-03-14T14:02:52;3.77;;;2.30;;
37425;SDS011;23285;50.180;7.036;2023-03-14T14:05:39;2.87;;;2.20;;
37425;SDS011;23285;50.180;7.036;2023-03-14T14:08:25;2.13;;;1.90;;
37425;SDS011;23285;50.180;7.036;2023-03-14T14:14:07;4.87;;;2.23;;
37425;SDS011;23285;50.180;7.036;2023-03-14T14:16:58;2.90;;;1.90;;
37425;SDS011;23285;50.180;7.036;2023-03-14T14:19:47;5.20;;;2.27;;
37425;SDS011;23285;50.180;7.036;2023-03-14T14:22:33;3.17;;;2.00;;
37425;SDS011;23285;50.180;7.036;2023-03-14T14:25:20;3.57;;;1.83;;
37425;SDS011;23285;50.180;7.036;2023-03-14T14:28:16;4.33;;;1.70;;
37425;SDS011;23285;50.180;7.036;2023-03-14T14:31:20;2.70;;;1.50;;
37425;SDS011;23285;50.180;7.036;2023-03-14T14:34:17;3.77;;;1.60;;
37425;SDS011;23285;50.180;7.036;2023-03-14T14:37:05;1.50;;;1.33;;
37425;SDS011;23285;50.180;7.036;2023-03-14T14:40:01;3.23;;;1.70;;
37425;SDS011;23285;50.180;7.036;2023-03-14T14:42:55;3.97;;;1.33;;
37425;SDS011;23285;50.180;7.036;2023-03-14T14:45:49;1.80;;;1.30;;
37425;SDS011;23285;50.180;7.036;2023-03-14T14:48:39;1.23;;;1.10;;
37425;SDS011;23285;50.180;7.036;2023-03-14T14:51:26;2.87;;;1.43;;
37425;SDS011;23285;50.180;7.036;2023-03-14T14:54:18;2.07;;;1.30;;
37425;SDS011;23285;50.180;7.036;2023-03-14T14:57:06;3.73;;;1.50;;
37425;SDS011;23285;50.180;7.036;2023-03-14T15:00:00;4.00;;;1.50;;
37425;SDS011;23285;50.180;7.036;2023-03-14T15:02:51;2.30;;;1.60;;
37425;SDS011;23285;50.180;7.036;2023-03-14T15:05:40;3.40;;;1.40;;
37425;SDS011;23285;50.180;7.036;2023-03-14T15:08:27;2.43;;;1.60;;
37425;SDS011;23285;50.180;7.036;2023-03-14T15:11:15;3.33;;;1.70;;
37425;SDS011;23285;50.180;7.036;2023-03-14T15:14:03;5.30;;;1.60;;
37425;SDS011;23285;50.180;7.036;2023-03-14T15:16:51;2.90;;;1.67;;
37425;SDS011;23285;50.180;7.036;2023-03-14T15:19:37;2.50;;;1.57;;
37425;SDS011;23285;50.180;7.036;2023-03-14T15:22:26;3.47;;;1.83;;
37425;SDS011;23285;50.180;7.036;2023-03-14T15:25:12;1.90;;;1.53;;
37425;SDS011;23285;50.180;7.036;2023-03-14T15:27:58;3.47;;;1.70;;
37425;SDS011;23285;50.180;7.036;2023-03-14T15:30:44;3.57;;;1.80;;
37425;SDS011;23285;50.180;7.036;2023-03-14T15:33:31;7.10;;;2.13;;
37425;SDS011;23285;50.180;7.036;2023-03-14T15:36:22;7.23;;;2.43;;
37425;SDS011;23285;50.180;7.036;2023-03-14T15:39:11;4.00;;;2.17;;
37425;SDS011;23285;50.180;7.036;2023-03-14T15:41:57;4.37;;;2.27;;
37425;SDS011;23285;50.180;7.036;2023-03-14T15:44:43;2.30;;;1.60;;
37425;SDS011;23285;50.180;7.036;2023-03-14T15:47:30;2.60;;;1.90;;
37425;SDS011;23285;50.180;7.036;2023-03-14T15:50:17;1.83;;;1.63;;
37425;SDS011;23285;50.180;7.036;2023-03-14T15:53:03;1.87;;;1.63;;
37425;SDS011;23285;50.180;7.036;2023-03-14T15:55:52;1.87;;;1.67;;
37425;SDS011;23285;50.180;7.036;2023-03-14T15:58:38;4.00;;;1.77;;
37425;SDS011;23285;50.180;7.036;2023-03-14T16:01:24;5.53;;;1.80;;
37425;SDS011;23285;50.180;7.036;2023-03-14T16:04:10;2.60;;;1.63;;
37425;SDS011;23285;50.180;7.036;2023-03-14T16:06:57;3.13;;;1.87;;
37425;SDS011;23285;50.180;7.036;2023-03-14T16:09:43;2.93;;;1.70;;
37425;SDS011;23285;50.180;7.036;2023-03-14T16:12:31;2.10;;;1.60;;
37425;SDS011;23285;50.180;7.036;2023-03-14T16:15:18;2.97;;;1.47;;
37425;SDS011;23285;50.180;7.036;2023-03-14T16:18:04;5.90;;;1.50;;
37425;SDS011;23285;50.180;7.036;2023-03-14T16:20:54;3.13;;;1.50;;
37425;SDS011;23285;50.180;7.036;2023-03-14T16:23:42;1.70;;;1.53;;
37425;SDS011;23285;50.180;7.036;2023-03-14T16:26:29;2.47;;;1.60;;
37425;SDS011;23285;50.180;7.036;2023-03-14T16:29:19;1.83;;;1.50;;
37425;SDS011;23285;50.180;7.036;2023-03-14T16:32:06;2.03;;;1.20;;
37425;SDS011;23285;50.180;7.036;2023-03-14T16:34:52;1.77;;;1.33;;
37425;SDS011;23285;50.180;7.036;2023-03-14T16:37:39;1.37;;;1.03;;
37425;SDS011;23285;50.180;7.036;2023-03-14T16:40:25;2.23;;;1.17;;
37425;SDS011;23285;50.180;7.036;2023-03-14T16:43:11;1.70;;;0.90;;
37425;SDS011;23285;50.180;7.036;2023-03-14T16:45:59;2.33;;;1.30;;
37425;SDS011;23285;50.180;7.036;2023-03-14T16:48:46;3.17;;;1.30;;
37425;SDS011;23285;50.180;7.036;2023-03-14T16:51:32;3.23;;;1.30;;
37425;SDS011;23285;50.180;7.036;2023-03-14T16:54:19;4.87;;;1.50;;
37425;SDS011;23285;50.180;7.036;2023-03-14T16:57:05;4.50;;;1.43;;
37425;SDS011;23285;50.180;7.036;2023-03-14T16:59:52;3.23;;;1.53;;
37425;SDS011;23285;50.180;7.036;2023-03-14T17:02:39;4.10;;;1.80;;
37425;SDS011;23285;50.180;7.036;2023-03-14T17:05:26;2.60;;;1.43;;
37425;SDS011;23285;50.180;7.036;2023-03-14T17:08:12;4.30;;;1.40;;
37425;SDS011;23285;50.180;7.036;2023-03-14T17:10:59;6.03;;;1.87;;
37425;SDS011;23285;50.180;7.036;2023-03-14T17:13:45;4.93;;;1.70;;
37425;SDS011;23285;50.180;7.036;2023-03-14T17:16:32;6.27;;;2.20;;